sensor_id;sensor_type;location;lat;lon;timestamp;P1;durP1;ratioP1;P2;durP2;ratioP2
75417;SDS011;63997;52.112;5.420;2022-12-18T00:02:08;37.40;;;14.87;;
75417;SDS011;63997;52.112;5.420;2022-12-18T00:04:37;45.13;;;16.90;;
75417;SDS011;63997;52.112;5.420;2022-12-18T00:07:04;45.72;;;15.88;;
75417;SDS011;63997;52.112;5.420;2022-12-18T00:09:30;39.58;;;13.57;;
75417;SDS011;63997;52.112;5.420;2022-12-18T00:12:05;48.40;;;16.83;;
75417;SDS011;63997;52.112;5.420;2022-12-18T00:14:40;47.30;;;17.50;;
75417;SDS011;63997;52.112;5.420;2022-12-18T00:17:10;46.13;;;15.05;;
75417;SDS011;63997;52.112;5.420;2022-12-18T00:19:36;46.55;;;16.98;;
75417;SDS011;63997;52.112;5.420;2022-12-18T00:22:02;47.17;;;15.93;;
75417;SDS011;63997;52.112;5.420;2022-12-18T00:24:29;52.13;;;16.25;;
75417;SDS011;63997;52.112;5.420;2022-12-18T00:26:55;53.57;;;18.13;;
75417;SDS011;63997;52.112;5.420;2022-12-18T00:29:23;50.95;;;18.33;;
75417;SDS011;63997;52.112;5.420;2022-12-18T00:31:49;50.33;;;16.80;;
75417;SDS011;63997;52.112;5.420;2022-12-18T00:34:16;46.33;;;17.50;;
75417;SDS011;63997;52.112;5.420;2022-12-18T00:36:42;48.88;;;17.60;;
75417;SDS011;63997;52.112;5.420;2022-12-18T00:39:10;46.20;;;17.13;;
75417;SDS011;63997;52.112;5.420;2022-12-18T00:41:38;49.08;;;17.58;;
75417;SDS011;63997;52.112;5.420;2022-12-18T00:44:23;40.97;;;16.25;;
75417;SDS011;63997;52.112;5.420;2022-12-18T00:46:49;45.38;;;16.52;;
75417;SDS011;63997;52.112;5.420;2022-12-18T00:49:17;48.30;;;15.50;;
75417;SDS011;63997;52.112;5.420;2022-12-18T00:51:45;57.07;;;17.30;;
75417;SDS011;63997;52.112;5.420;2022-12-18T00:54:12;42.90;;;15.45;;
75417;SDS011;63997;52.112;5.420;2022-12-18T00:56:38;44.85;;;17.42;;
75417;SDS011;63997;52.112;5.420;2022-12-18T00:59:14;46.80;;;16.90;;
75417;SDS011;63997;52.112;5.420;2022-12-18T01:01:40;41.63;;;16.13;;
75417;SDS011;63997;52.112;5.420;2022-12-18T01:04:07;42.53;;;15.20;;
75417;SDS011;63997;52.112;5.420;2022-12-18T01:06:34;47.88;;;16.52;;
75417;SDS011;63997;52.112;5.420;2022-12-18T01:09:00;50.45;;;17.88;;
75417;SDS011;63997;52.112;5.420;2022-12-18T01:11:28;45.60;;;16.20;;
75417;SDS011;63997;52.112;5.420;2022-12-18T01:13:54;51.85;;;17.08;;
75417;SDS011;63997;52.112;5.420;2022-12-18T01:16:21;47.60;;;15.93;;
75417;SDS011;63997;52.112;5.420;2022-12-18T01:18:51;44.03;;;16.23;;
75417;SDS011;63997;52.112;5.420;2022-12-18T01:21:19;43.28;;;15.30;;
75417;SDS011;63997;52.112;5.420;2022-12-18T01:23:46;43.67;;;15.40;;
75417;SDS011;63997;52.112;5.420;2022-12-18T01:26:16;42.80;;;15.38;;
75417;SDS011;63997;52.112;5.420;2022-12-18T01:28:43;45.10;;;15.27;;
75417;SDS011;63997;52.112;5.420;2022-12-18T01:31:14;49.78;;;16.95;;
75417;SDS011;63997;52.112;5.420;2022-12-18T01:33:40;44.60;;;15.57;;
75417;SDS011;63997;52.112;5.420;2022-12-18T01:36:08;48.78;;;17.52;;
75417;SDS011;63997;52.112;5.420;2022-12-18T01:38:40;40.55;;;16.38;;
75417;SDS011;63997;52.112;5.420;2022-12-18T01:41:06;41.13;;;15.00;;
75417;SDS011;63997;52.112;5.420;2022-12-18T01:43:43;45.40;;;15.57;;
75417;SDS011;63997;52.112;5.420;2022-12-18T01:46:22;45.22;;;16.55;;
75417;SDS011;63997;52.112;5.420;2022-12-18T01:48:52;35.92;;;14.07;;
75417;SDS011;63997;52.112;5.420;2022-12-18T01:51:23;42.78;;;15.02;;
75417;SDS011;63997;52.112;5.420;2022-12-18T01:53:50;39.50;;;14.87;;
75417;SDS011;63997;52.112;5.420;2022-12-18T01:56:17;45.25;;;15.52;;
75417;SDS011;63997;52.112;5.420;2022-12-18T01:58:55;45.45;;;17.67;;
75417;SDS011;63997;52.112;5.420;2022-12-18T02:01:25;48.72;;;16.45;;
75417;SDS011;63997;52.112;5.420;2022-12-18T02:03:53;45.20;;;16.73;;
75417;SDS011;63997;52.112;5.420;2022-12-18T02:06:25;47.73;;;16.27;;
75417;SDS011;63997;52.112;5.420;2022-12-18T02:11:36;50.00;;;16.45;;
75417;SDS011;63997;52.112;5.420;2022-12-18T02:16:51;41.40;;;14.77;;
75417;SDS011;63997;52.112;5.420;2022-12-18T02:27:54;40.90;;;14.75;;
75417;SDS011;63997;52.112;5.420;2022-12-18T02:30:25;42.03;;;16.52;;
75417;SDS011;63997;52.112;5.420;2022-12-18T02:32:55;47.83;;;14.67;;
75417;SDS011;63997;52.112;5.420;2022-12-18T02:35:23;48.28;;;14.65;;
75417;SDS011;63997;52.112;5.420;2022-12-18T02:37:53;47.42;;;16.67;;
75417;SDS011;63997;52.112;5.420;2022-12-18T02:40:20;40.05;;;14.88;;
75417;SDS011;63997;52.112;5.420;2022-12-18T02:42:50;43.13;;;16.13;;
75417;SDS011;63997;52.112;5.420;2022-12-18T02:45:16;39.77;;;14.13;;
75417;SDS011;63997;52.112;5.420;2022-12-18T02:47:43;38.05;;;13.82;;
75417;SDS011;63997;52.112;5.420;2022-12-18T02:50:17;41.67;;;14.70;;
75417;SDS011;63997;52.112;5.420;2022-12-18T02:53:01;42.03;;;15.30;;
75417;SDS011;63997;52.112;5.420;2022-12-18T02:58:26;45.57;;;14.90;;
75417;SDS011;63997;52.112;5.420;2022-12-18T03:01:01;40.50;;;14.23;;
75417;SDS011;63997;52.112;5.420;2022-12-18T03:03:38;40.88;;;14.82;;
75417;SDS011;63997;52.112;5.420;2022-12-18T03:06:24;39.25;;;14.85;;
75417;SDS011;63997;52.112;5.420;2022-12-18T03:09:02;41.80;;;15.48;;
75417;SDS011;63997;52.112;5.420;2022-12-18T03:11:34;37.33;;;13.73;;
75417;SDS011;63997;52.112;5.420;2022-12-18T03:14:25;38.92;;;14.02;;
75417;SDS011;63997;52.112;5.420;2022-12-18T03:16:57;40.85;;;14.55;;
75417;SDS011;63997;52.112;5.420;2022-12-18T03:19:31;35.55;;;14.48;;
75417;SDS011;63997;52.112;5.420;2022-12-18T03:22:00;40.92;;;14.85;;
75417;SDS011;63997;52.112;5.420;2022-12-18T03:24:29;38.70;;;14.00;;
75417;SDS011;63997;52.112;5.420;2022-12-18T03:26:58;32.85;;;12.90;;
75417;SDS011;63997;52.112;5.420;2022-12-18T03:29:32;36.85;;;13.65;;
75417;SDS011;63997;52.112;5.420;2022-12-18T03:32:03;37.50;;;14.35;;
75417;SDS011;63997;52.112;5.420;2022-12-18T03:34:34;35.80;;;12.55;;
75417;SDS011;63997;52.112;5.420;2022-12-18T03:37:03;34.37;;;14.23;;
75417;SDS011;63997;52.112;5.420;2022-12-18T03:39:30;35.05;;;13.45;;
75417;SDS011;63997;52.112;5.420;2022-12-18T03:42:16;36.10;;;14.45;;
75417;SDS011;63997;52.112;5.420;2022-12-18T03:52:46;32.85;;;12.27;;
75417;SDS011;63997;52.112;5.420;2022-12-18T03:55:18;35.08;;;13.23;;
75417;SDS011;63997;52.112;5.420;2022-12-18T03:57:47;35.17;;;13.02;;
75417;SDS011;63997;52.112;5.420;2022-12-18T04:00:17;35.05;;;13.18;;
75417;SDS011;63997;52.112;5.420;2022-12-18T04:02:46;29.57;;;12.07;;
75417;SDS011;63997;52.112;5.420;2022-12-18T04:05:16;31.10;;;12.43;;
75417;SDS011;63997;52.112;5.420;2022-12-18T04:07:44;36.72;;;12.65;;
75417;SDS011;63997;52.112;5.420;2022-12-18T04:10:13;28.48;;;12.40;;
75417;SDS011;63997;52.112;5.420;2022-12-18T04:12:41;29.98;;;11.80;;
75417;SDS011;63997;52.112;5.420;2022-12-18T04:15:09;31.87;;;12.00;;
75417;SDS011;63997;52.112;5.420;2022-12-18T04:17:37;31.35;;;13.02;;
75417;SDS011;63997;52.112;5.420;2022-12-18T04:20:05;26.55;;;10.90;;
75417;SDS011;63997;52.112;5.420;2022-12-18T04:22:32;26.30;;;10.95;;
75417;SDS011;63997;52.112;5.420;2022-12-18T04:24:58;21.85;;;9.93;;
75417;SDS011;63997;52.112;5.420;2022-12-18T04:27:26;27.33;;;11.53;;
75417;SDS011;63997;52.112;5.420;2022-12-18T04:29:53;28.98;;;11.38;;
75417;SDS011;63997;52.112;5.420;2022-12-18T04:32:20;29.42;;;12.05;;
75417;SDS011;63997;52.112;5.420;2022-12-18T04:34:48;26.48;;;10.85;;
75417;SDS011;63997;52.112;5.420;2022-12-18T04:37:14;24.17;;;11.73;;
75417;SDS011;63997;52.112;5.420;2022-12-18T04:39:41;28.37;;;11.10;;
75417;SDS011;63997;52.112;5.420;2022-12-18T04:42:07;20.30;;;8.77;;
75417;SDS011;63997;52.112;5.420;2022-12-18T04:44:33;22.27;;;10.13;;
75417;SDS011;63997;52.112;5.420;2022-12-18T04:47:00;24.13;;;10.77;;
75417;SDS011;63997;52.112;5.420;2022-12-18T04:49:26;24.40;;;10.45;;
75417;SDS011;63997;52.112;5.420;2022-12-18T04:51:53;28.63;;;11.07;;
75417;SDS011;63997;52.112;5.420;2022-12-18T04:54:20;26.38;;;10.50;;
75417;SDS011;63997;52.112;5.420;2022-12-18T04:56:46;24.80;;;10.40;;
75417;SDS011;63997;52.112;5.420;2022-12-18T04:59:13;25.42;;;10.52;;
75417;SDS011;63997;52.112;5.420;2022-12-18T05:01:39;20.60;;;9.90;;
75417;SDS011;63997;52.112;5.420;2022-12-18T05:04:06;21.77;;;9.03;;
75417;SDS011;63997;52.112;5.420;2022-12-18T05:06:32;25.45;;;9.60;;
75417;SDS011;63997;52.112;5.420;2022-12-18T05:08:59;21.33;;;8.65;;
75417;SDS011;63997;52.112;5.420;2022-12-18T05:11:25;17.48;;;8.57;;
75417;SDS011;63997;52.112;5.420;2022-12-18T05:13:52;23.33;;;9.60;;
75417;SDS011;63997;52.112;5.420;2022-12-18T05:16:20;21.87;;;9.00;;
75417;SDS011;63997;52.112;5.420;2022-12-18T05:18:46;14.77;;;7.60;;
75417;SDS011;63997;52.112;5.420;2022-12-18T05:21:13;23.88;;;9.10;;
75417;SDS011;63997;52.112;5.420;2022-12-18T05:23:39;23.52;;;9.57;;
75417;SDS011;63997;52.112;5.420;2022-12-18T05:26:07;23.15;;;9.23;;
75417;SDS011;63997;52.112;5.420;2022-12-18T05:28:34;17.03;;;8.83;;
75417;SDS011;63997;52.112;5.420;2022-12-18T05:31:02;21.35;;;8.85;;
75417;SDS011;63997;52.112;5.420;2022-12-18T05:33:30;18.25;;;9.00;;
75417;SDS011;63997;52.112;5.420;2022-12-18T05:35:59;16.98;;;7.97;;
75417;SDS011;63997;52.112;5.420;2022-12-18T05:38:31;16.50;;;7.95;;
75417;SDS011;63997;52.112;5.420;2022-12-18T05:40:59;15.23;;;7.77;;
75417;SDS011;63997;52.112;5.420;2022-12-18T05:43:26;20.25;;;8.45;;
75417;SDS011;63997;52.112;5.420;2022-12-18T05:45:53;14.70;;;8.13;;
75417;SDS011;63997;52.112;5.420;2022-12-18T05:48:22;20.33;;;8.80;;
75417;SDS011;63997;52.112;5.420;2022-12-18T05:50:50;15.35;;;8.35;;
75417;SDS011;63997;52.112;5.420;2022-12-18T05:53:19;21.90;;;9.17;;
75417;SDS011;63997;52.112;5.420;2022-12-18T05:55:47;17.63;;;8.93;;
75417;SDS011;63997;52.112;5.420;2022-12-18T05:58:14;18.45;;;8.88;;
75417;SDS011;63997;52.112;5.420;2022-12-18T06:00:43;16.13;;;8.35;;
75417;SDS011;63997;52.112;5.420;2022-12-18T06:03:24;18.15;;;7.82;;
75417;SDS011;63997;52.112;5.420;2022-12-18T06:06:03;16.10;;;7.77;;
75417;SDS011;63997;52.112;5.420;2022-12-18T06:08:30;18.40;;;8.32;;
75417;SDS011;63997;52.112;5.420;2022-12-18T06:10:57;21.88;;;9.00;;
75417;SDS011;63997;52.112;5.420;2022-12-18T06:13:23;16.13;;;9.00;;
75417;SDS011;63997;52.112;5.420;2022-12-18T06:15:49;16.13;;;9.35;;
75417;SDS011;63997;52.112;5.420;2022-12-18T06:18:16;13.90;;;7.00;;
75417;SDS011;63997;52.112;5.420;2022-12-18T06:20:42;17.10;;;8.57;;
75417;SDS011;63997;52.112;5.420;2022-12-18T06:23:09;18.45;;;8.38;;
75417;SDS011;63997;52.112;5.420;2022-12-18T06:25:38;14.43;;;7.93;;
75417;SDS011;63997;52.112;5.420;2022-12-18T06:28:06;13.65;;;7.68;;
75417;SDS011;63997;52.112;5.420;2022-12-18T06:30:33;15.27;;;8.03;;
75417;SDS011;63997;52.112;5.420;2022-12-18T06:33:00;20.98;;;8.43;;
75417;SDS011;63997;52.112;5.420;2022-12-18T06:35:26;18.35;;;8.43;;
75417;SDS011;63997;52.112;5.420;2022-12-18T06:37:52;21.02;;;8.25;;
75417;SDS011;63997;52.112;5.420;2022-12-18T06:40:19;17.67;;;7.63;;
75417;SDS011;63997;52.112;5.420;2022-12-18T06:42:45;19.83;;;8.97;;
75417;SDS011;63997;52.112;5.420;2022-12-18T06:45:11;19.67;;;7.47;;
75417;SDS011;63997;52.112;5.420;2022-12-18T06:47:40;16.05;;;8.13;;
75417;SDS011;63997;52.112;5.420;2022-12-18T06:50:07;19.00;;;8.20;;
75417;SDS011;63997;52.112;5.420;2022-12-18T06:52:33;19.13;;;8.55;;
75417;SDS011;63997;52.112;5.420;2022-12-18T06:55:00;14.63;;;7.87;;
75417;SDS011;63997;52.112;5.420;2022-12-18T06:57:27;14.73;;;7.82;;
75417;SDS011;63997;52.112;5.420;2022-12-18T06:59:53;16.17;;;8.30;;
75417;SDS011;63997;52.112;5.420;2022-12-18T07:02:19;18.75;;;7.90;;
75417;SDS011;63997;52.112;5.420;2022-12-18T07:04:46;17.13;;;8.52;;
75417;SDS011;63997;52.112;5.420;2022-12-18T07:07:12;13.53;;;7.17;;
75417;SDS011;63997;52.112;5.420;2022-12-18T07:09:39;15.32;;;7.05;;
75417;SDS011;63997;52.112;5.420;2022-12-18T07:12:06;23.45;;;8.52;;
75417;SDS011;63997;52.112;5.420;2022-12-18T07:14:33;14.02;;;6.80;;
75417;SDS011;63997;52.112;5.420;2022-12-18T07:17:00;16.58;;;7.63;;
75417;SDS011;63997;52.112;5.420;2022-12-18T07:19:27;18.53;;;7.70;;
75417;SDS011;63997;52.112;5.420;2022-12-18T07:21:55;15.15;;;7.13;;
75417;SDS011;63997;52.112;5.420;2022-12-18T07:24:22;16.05;;;8.13;;
75417;SDS011;63997;52.112;5.420;2022-12-18T07:26:48;18.20;;;7.90;;
75417;SDS011;63997;52.112;5.420;2022-12-18T07:29:15;17.63;;;8.38;;
75417;SDS011;63997;52.112;5.420;2022-12-18T07:31:41;14.47;;;7.50;;
75417;SDS011;63997;52.112;5.420;2022-12-18T07:34:11;16.73;;;7.68;;
75417;SDS011;63997;52.112;5.420;2022-12-18T07:36:39;14.32;;;7.07;;
75417;SDS011;63997;52.112;5.420;2022-12-18T07:39:06;18.27;;;7.78;;
75417;SDS011;63997;52.112;5.420;2022-12-18T07:41:33;17.15;;;8.10;;
75417;SDS011;63997;52.112;5.420;2022-12-18T07:43:59;16.07;;;7.77;;
75417;SDS011;63997;52.112;5.420;2022-12-18T07:46:28;20.88;;;8.73;;
75417;SDS011;63997;52.112;5.420;2022-12-18T07:48:54;19.33;;;7.22;;
75417;SDS011;63997;52.112;5.420;2022-12-18T07:51:20;16.20;;;7.05;;
75417;SDS011;63997;52.112;5.420;2022-12-18T07:53:47;15.00;;;7.40;;
75417;SDS011;63997;52.112;5.420;2022-12-18T07:56:17;16.03;;;7.50;;
75417;SDS011;63997;52.112;5.420;2022-12-18T07:58:53;12.10;;;6.80;;
75417;SDS011;63997;52.112;5.420;2022-12-18T08:01:20;12.27;;;6.47;;
75417;SDS011;63997;52.112;5.420;2022-12-18T08:03:47;16.35;;;7.55;;
75417;SDS011;63997;52.112;5.420;2022-12-18T08:06:15;14.27;;;7.38;;
75417;SDS011;63997;52.112;5.420;2022-12-18T08:08:41;15.00;;;7.20;;
75417;SDS011;63997;52.112;5.420;2022-12-18T08:11:08;13.88;;;7.47;;
75417;SDS011;63997;52.112;5.420;2022-12-18T08:13:34;18.17;;;7.78;;
75417;SDS011;63997;52.112;5.420;2022-12-18T08:16:02;14.70;;;7.00;;
75417;SDS011;63997;52.112;5.420;2022-12-18T08:18:31;12.98;;;7.47;;
75417;SDS011;63997;52.112;5.420;2022-12-18T08:21:07;13.63;;;6.17;;
75417;SDS011;63997;52.112;5.420;2022-12-18T08:23:37;18.27;;;7.68;;
75417;SDS011;63997;52.112;5.420;2022-12-18T08:26:08;13.65;;;7.20;;
75417;SDS011;63997;52.112;5.420;2022-12-18T08:28:37;16.50;;;7.18;;
75417;SDS011;63997;52.112;5.420;2022-12-18T08:31:03;14.65;;;7.45;;
75417;SDS011;63997;52.112;5.420;2022-12-18T08:33:30;14.77;;;6.07;;
75417;SDS011;63997;52.112;5.420;2022-12-18T08:36:00;13.98;;;6.90;;
75417;SDS011;63997;52.112;5.420;2022-12-18T08:38:27;14.38;;;7.25;;
75417;SDS011;63997;52.112;5.420;2022-12-18T08:41:03;13.85;;;7.65;;
75417;SDS011;63997;52.112;5.420;2022-12-18T08:43:31;14.75;;;7.45;;
75417;SDS011;63997;52.112;5.420;2022-12-18T08:46:17;13.17;;;6.73;;
75417;SDS011;63997;52.112;5.420;2022-12-18T08:48:44;18.55;;;7.90;;
75417;SDS011;63997;52.112;5.420;2022-12-18T08:51:11;16.02;;;7.97;;
75417;SDS011;63997;52.112;5.420;2022-12-18T08:53:38;15.77;;;7.25;;
75417;SDS011;63997;52.112;5.420;2022-12-18T08:56:05;16.27;;;8.43;;
75417;SDS011;63997;52.112;5.420;2022-12-18T08:58:31;18.13;;;8.40;;
75417;SDS011;63997;52.112;5.420;2022-12-18T09:01:02;16.42;;;8.10;;
75417;SDS011;63997;52.112;5.420;2022-12-18T09:03:30;22.30;;;9.15;;
75417;SDS011;63997;52.112;5.420;2022-12-18T09:05:56;22.65;;;8.07;;
75417;SDS011;63997;52.112;5.420;2022-12-18T09:08:23;20.25;;;8.35;;
75417;SDS011;63997;52.112;5.420;2022-12-18T09:10:49;12.77;;;6.67;;
75417;SDS011;63997;52.112;5.420;2022-12-18T09:13:17;14.15;;;7.95;;
75417;SDS011;63997;52.112;5.420;2022-12-18T09:15:45;17.75;;;9.38;;
75417;SDS011;63997;52.112;5.420;2022-12-18T09:18:14;19.55;;;8.95;;
75417;SDS011;63997;52.112;5.420;2022-12-18T09:20:42;18.33;;;8.77;;
75417;SDS011;63997;52.112;5.420;2022-12-18T09:23:09;17.37;;;8.03;;
75417;SDS011;63997;52.112;5.420;2022-12-18T09:25:36;15.45;;;8.77;;
75417;SDS011;63997;52.112;5.420;2022-12-18T09:28:03;17.20;;;8.55;;
75417;SDS011;63997;52.112;5.420;2022-12-18T09:30:40;20.15;;;8.65;;
75417;SDS011;63997;52.112;5.420;2022-12-18T09:33:08;15.50;;;8.95;;
75417;SDS011;63997;52.112;5.420;2022-12-18T09:35:36;14.97;;;8.20;;
75417;SDS011;63997;52.112;5.420;2022-12-18T09:38:06;13.88;;;7.88;;
75417;SDS011;63997;52.112;5.420;2022-12-18T09:40:35;19.20;;;8.80;;
75417;SDS011;63997;52.112;5.420;2022-12-18T09:43:05;14.10;;;7.63;;
75417;SDS011;63997;52.112;5.420;2022-12-18T09:45:42;14.88;;;7.95;;
75417;SDS011;63997;52.112;5.420;2022-12-18T09:48:18;12.47;;;6.87;;
75417;SDS011;63997;52.112;5.420;2022-12-18T09:50:49;18.55;;;8.63;;
75417;SDS011;63997;52.112;5.420;2022-12-18T09:53:21;16.00;;;7.57;;
75417;SDS011;63997;52.112;5.420;2022-12-18T09:55:51;15.30;;;8.10;;
75417;SDS011;63997;52.112;5.420;2022-12-18T09:58:20;13.40;;;7.07;;
75417;SDS011;63997;52.112;5.420;2022-12-18T10:00:57;12.83;;;7.60;;
75417;SDS011;63997;52.112;5.420;2022-12-18T10:03:23;13.80;;;7.53;;
75417;SDS011;63997;52.112;5.420;2022-12-18T10:06:01;14.43;;;6.22;;
75417;SDS011;63997;52.112;5.420;2022-12-18T10:08:39;15.80;;;6.60;;
75417;SDS011;63997;52.112;5.420;2022-12-18T10:14:10;14.07;;;6.33;;
75417;SDS011;63997;52.112;5.420;2022-12-18T10:16:53;13.88;;;7.22;;
75417;SDS011;63997;52.112;5.420;2022-12-18T10:22:11;17.27;;;7.03;;
75417;SDS011;63997;52.112;5.420;2022-12-18T10:27:30;13.40;;;6.63;;
75417;SDS011;63997;52.112;5.420;2022-12-18T10:29:58;10.90;;;6.75;;
75417;SDS011;63997;52.112;5.420;2022-12-18T10:32:27;13.65;;;7.80;;
75417;SDS011;63997;52.112;5.420;2022-12-18T10:34:56;14.02;;;7.13;;
75417;SDS011;63997;52.112;5.420;2022-12-18T10:37:26;12.75;;;7.20;;
75417;SDS011;63997;52.112;5.420;2022-12-18T10:40:08;13.10;;;6.63;;
75417;SDS011;63997;52.112;5.420;2022-12-18T10:42:47;12.48;;;6.53;;
75417;SDS011;63997;52.112;5.420;2022-12-18T10:45:28;16.60;;;7.40;;
75417;SDS011;63997;52.112;5.420;2022-12-18T10:47:55;15.48;;;6.78;;
75417;SDS011;63997;52.112;5.420;2022-12-18T10:50:34;13.73;;;6.57;;
75417;SDS011;63997;52.112;5.420;2022-12-18T10:53:24;12.37;;;6.53;;
75417;SDS011;63997;52.112;5.420;2022-12-18T10:55:53;13.88;;;6.63;;
75417;SDS011;63997;52.112;5.420;2022-12-18T10:58:26;15.20;;;6.32;;
75417;SDS011;63997;52.112;5.420;2022-12-18T11:01:09;14.65;;;6.78;;
75417;SDS011;63997;52.112;5.420;2022-12-18T11:06:09;11.97;;;6.33;;
75417;SDS011;63997;52.112;5.420;2022-12-18T11:08:37;16.00;;;6.82;;
75417;SDS011;63997;52.112;5.420;2022-12-18T11:11:06;11.88;;;5.93;;
75417;SDS011;63997;52.112;5.420;2022-12-18T11:13:55;13.15;;;6.80;;
75417;SDS011;63997;52.112;5.420;2022-12-18T11:16:32;11.23;;;5.80;;
75417;SDS011;63997;52.112;5.420;2022-12-18T11:19:48;12.00;;;7.07;;
75417;SDS011;63997;52.112;5.420;2022-12-18T11:22:04;10.25;;;6.10;;
75417;SDS011;63997;52.112;5.420;2022-12-18T11:24:59;16.58;;;6.68;;
75417;SDS011;63997;52.112;5.420;2022-12-18T11:28:24;14.07;;;5.65;;
75417;SDS011;63997;52.112;5.420;2022-12-18T11:33:49;16.93;;;6.80;;
75417;SDS011;63997;52.112;5.420;2022-12-18T11:36:38;12.73;;;6.80;;
75417;SDS011;63997;52.112;5.420;2022-12-18T11:39:18;10.65;;;6.20;;
75417;SDS011;63997;52.112;5.420;2022-12-18T11:41:56;12.75;;;6.53;;
75417;SDS011;63997;52.112;5.420;2022-12-18T11:44:40;14.43;;;6.13;;
75417;SDS011;63997;52.112;5.420;2022-12-18T11:47:25;12.37;;;5.67;;
75417;SDS011;63997;52.112;5.420;2022-12-18T11:50:00;13.00;;;6.57;;
75417;SDS011;63997;52.112;5.420;2022-12-18T11:52:31;11.48;;;6.88;;
75417;SDS011;63997;52.112;5.420;2022-12-18T11:55:07;13.55;;;6.20;;
75417;SDS011;63997;52.112;5.420;2022-12-18T11:57:42;11.85;;;6.88;;
75417;SDS011;63997;52.112;5.420;2022-12-18T12:00:15;12.73;;;7.07;;
75417;SDS011;63997;52.112;5.420;2022-12-18T12:16:22;14.38;;;6.80;;
75417;SDS011;63997;52.112;5.420;2022-12-18T12:21:53;14.43;;;7.03;;
75417;SDS011;63997;52.112;5.420;2022-12-18T12:24:48;10.43;;;5.60;;
75417;SDS011;63997;52.112;5.420;2022-12-18T12:38:10;10.73;;;6.63;;
75417;SDS011;63997;52.112;5.420;2022-12-18T12:40:45;11.70;;;5.97;;
75417;SDS011;63997;52.112;5.420;2022-12-18T12:43:32;13.95;;;7.00;;
75417;SDS011;63997;52.112;5.420;2022-12-18T12:46:09;13.23;;;6.68;;
75417;SDS011;63997;52.112;5.420;2022-12-18T12:51:19;14.30;;;6.63;;
75417;SDS011;63997;52.112;5.420;2022-12-18T12:53:48;14.17;;;6.27;;
75417;SDS011;63997;52.112;5.420;2022-12-18T12:56:16;10.98;;;6.35;;
75417;SDS011;63997;52.112;5.420;2022-12-18T13:01:25;12.70;;;6.90;;
75417;SDS011;63997;52.112;5.420;2022-12-18T13:06:56;14.20;;;6.83;;
75417;SDS011;63997;52.112;5.420;2022-12-18T13:09:33;14.05;;;7.05;;
75417;SDS011;63997;52.112;5.420;2022-12-18T13:12:12;14.50;;;7.07;;
75417;SDS011;63997;52.112;5.420;2022-12-18T13:20:40;13.33;;;6.80;;
75417;SDS011;63997;52.112;5.420;2022-12-18T13:25:54;14.45;;;8.18;;
75417;SDS011;63997;52.112;5.420;2022-12-18T13:31:12;16.88;;;7.38;;
75417;SDS011;63997;52.112;5.420;2022-12-18T13:33:41;15.33;;;7.07;;
75417;SDS011;63997;52.112;5.420;2022-12-18T13:36:32;14.40;;;7.03;;
75417;SDS011;63997;52.112;5.420;2022-12-18T13:44:56;13.43;;;7.07;;
75417;SDS011;63997;52.112;5.420;2022-12-18T13:47:33;13.03;;;6.83;;
75417;SDS011;63997;52.112;5.420;2022-12-18T13:50:11;11.13;;;6.45;;
75417;SDS011;63997;52.112;5.420;2022-12-18T13:52:59;14.32;;;7.55;;
75417;SDS011;63997;52.112;5.420;2022-12-18T13:55:25;15.40;;;7.07;;
75417;SDS011;63997;52.112;5.420;2022-12-18T13:58:02;16.05;;;7.53;;
75417;SDS011;63997;52.112;5.420;2022-12-18T14:00:31;15.30;;;6.87;;
75417;SDS011;63997;52.112;5.420;2022-12-18T14:02:58;14.90;;;7.07;;
75417;SDS011;63997;52.112;5.420;2022-12-18T14:05:29;13.38;;;7.28;;
75417;SDS011;63997;52.112;5.420;2022-12-18T14:08:05;15.68;;;7.60;;
75417;SDS011;63997;52.112;5.420;2022-12-18T14:10:34;12.27;;;6.63;;
75417;SDS011;63997;52.112;5.420;2022-12-18T14:15:58;16.95;;;7.65;;
75417;SDS011;63997;52.112;5.420;2022-12-18T14:21:01;13.85;;;8.02;;
75417;SDS011;63997;52.112;5.420;2022-12-18T14:23:34;13.60;;;7.18;;
75417;SDS011;63997;52.112;5.420;2022-12-18T14:26:01;16.43;;;7.97;;
75417;SDS011;63997;52.112;5.420;2022-12-18T14:28:31;12.52;;;7.00;;
75417;SDS011;63997;52.112;5.420;2022-12-18T14:30:58;14.15;;;7.95;;
75417;SDS011;63997;52.112;5.420;2022-12-18T14:33:26;18.13;;;8.18;;
75417;SDS011;63997;52.112;5.420;2022-12-18T14:35:57;15.30;;;8.13;;
75417;SDS011;63997;52.112;5.420;2022-12-18T14:38:35;14.07;;;7.73;;
75417;SDS011;63997;52.112;5.420;2022-12-18T14:41:09;16.02;;;7.55;;
75417;SDS011;63997;52.112;5.420;2022-12-18T14:43:38;13.07;;;7.20;;
75417;SDS011;63997;52.112;5.420;2022-12-18T14:49:24;14.57;;;7.38;;
75417;SDS011;63997;52.112;5.420;2022-12-18T14:51:56;12.70;;;7.00;;
75417;SDS011;63997;52.112;5.420;2022-12-18T14:54:27;15.88;;;8.50;;
75417;SDS011;63997;52.112;5.420;2022-12-18T14:57:02;14.60;;;7.85;;
75417;SDS011;63997;52.112;5.420;2022-12-18T14:59:43;15.55;;;8.05;;
75417;SDS011;63997;52.112;5.420;2022-12-18T15:02:23;16.13;;;8.00;;
75417;SDS011;63997;52.112;5.420;2022-12-18T15:05:01;14.50;;;7.53;;
75417;SDS011;63997;52.112;5.420;2022-12-18T15:07:38;12.43;;;7.15;;
75417;SDS011;63997;52.112;5.420;2022-12-18T15:12:34;15.55;;;7.60;;
75417;SDS011;63997;52.112;5.420;2022-12-18T15:15:02;14.25;;;7.70;;
75417;SDS011;63997;52.112;5.420;2022-12-18T15:17:30;20.30;;;8.00;;
75417;SDS011;63997;52.112;5.420;2022-12-18T15:20:02;16.88;;;7.57;;
75417;SDS011;63997;52.112;5.420;2022-12-18T15:22:35;15.38;;;7.95;;
75417;SDS011;63997;52.112;5.420;2022-12-18T15:25:03;14.50;;;7.97;;
75417;SDS011;63997;52.112;5.420;2022-12-18T15:27:50;18.42;;;7.55;;
75417;SDS011;63997;52.112;5.420;2022-12-18T15:30:22;14.83;;;7.33;;
75417;SDS011;63997;52.112;5.420;2022-12-18T15:32:50;17.42;;;8.23;;
75417;SDS011;63997;52.112;5.420;2022-12-18T15:35:18;13.95;;;7.75;;
75417;SDS011;63997;52.112;5.420;2022-12-18T15:37:47;15.65;;;7.20;;
75417;SDS011;63997;52.112;5.420;2022-12-18T15:40:20;14.80;;;8.25;;
75417;SDS011;63997;52.112;5.420;2022-12-18T15:42:50;15.40;;;7.33;;
75417;SDS011;63997;52.112;5.420;2022-12-18T15:45:38;19.42;;;8.13;;
75417;SDS011;63997;52.112;5.420;2022-12-18T15:48:15;18.55;;;8.77;;
75417;SDS011;63997;52.112;5.420;2022-12-18T15:50:46;15.23;;;8.13;;
75417;SDS011;63997;52.112;5.420;2022-12-18T15:53:15;20.92;;;8.45;;
75417;SDS011;63997;52.112;5.420;2022-12-18T15:55:41;14.83;;;7.70;;
75417;SDS011;63997;52.112;5.420;2022-12-18T15:58:26;15.77;;;8.52;;
75417;SDS011;63997;52.112;5.420;2022-12-18T16:00:53;19.38;;;8.13;;
75417;SDS011;63997;52.112;5.420;2022-12-18T16:03:21;16.95;;;7.70;;
75417;SDS011;63997;52.112;5.420;2022-12-18T16:05:48;18.55;;;8.30;;
75417;SDS011;63997;52.112;5.420;2022-12-18T16:08:14;15.73;;;8.33;;
75417;SDS011;63997;52.112;5.420;2022-12-18T16:10:41;18.23;;;8.75;;
75417;SDS011;63997;52.112;5.420;2022-12-18T16:13:11;20.80;;;8.73;;
75417;SDS011;63997;52.112;5.420;2022-12-18T16:15:41;19.77;;;8.45;;
75417;SDS011;63997;52.112;5.420;2022-12-18T16:18:10;17.23;;;9.73;;
75417;SDS011;63997;52.112;5.420;2022-12-18T16:20:37;19.60;;;8.73;;
75417;SDS011;63997;52.112;5.420;2022-12-18T16:23:04;17.05;;;8.70;;
75417;SDS011;63997;52.112;5.420;2022-12-18T16:25:30;14.77;;;8.02;;
75417;SDS011;63997;52.112;5.420;2022-12-18T16:27:57;20.88;;;8.40;;
75417;SDS011;63997;52.112;5.420;2022-12-18T16:30:25;18.95;;;8.15;;
75417;SDS011;63997;52.112;5.420;2022-12-18T16:33:03;16.13;;;8.17;;
75417;SDS011;63997;52.112;5.420;2022-12-18T16:35:30;18.60;;;10.68;;